sensor_id;sensor_type;location;lat;lon;timestamp;temperature;humidity
78028;DHT22;67235;45.638;11.714;2023-08-06T00:00:59;20.30;80.50
78028;DHT22;67235;45.638;11.714;2023-08-06T00:04:17;20.30;80.50
78028;DHT22;67235;45.638;11.714;2023-08-06T00:07:00;20.30;80.50
78028;DHT22;67235;45.638;11.714;2023-08-06T00:09:30;20.40;80.60
78028;DHT22;67235;45.638;11.714;2023-08-06T00:12:32;20.40;80.50
78028;DHT22;67235;45.638;11.714;2023-08-06T00:15:07;20.50;80.40
78028;DHT22;67235;45.638;11.714;2023-08-06T00:17:38;20.40;80.60
78028;DHT22;67235;45.638;11.714;2023-08-06T00:22:55;20.50;80.40
78028;DHT22;67235;45.638;11.714;2023-08-06T00:25:49;20.50;80.60
78028;DHT22;67235;45.638;11.714;2023-08-06T00:28:45;20.50;80.40
78028;DHT22;67235;45.638;11.714;2023-08-06T00:32:05;20.50;80.50
78028;DHT22;67235;45.638;11.714;2023-08-06T00:34:45;20.40;80.70
78028;DHT22;67235;45.638;11.714;2023-08-06T00:37:23;20.40;80.70
78028;DHT22;67235;45.638;11.714;2023-08-06T00:40:10;20.40;80.70
78028;DHT22;67235;45.638;11.714;2023-08-06T00:43:12;20.40;80.60
78028;DHT22;67235;45.638;11.714;2023-08-06T00:46:21;20.30;80.50
78028;DHT22;67235;45.638;11.714;2023-08-06T00:48:57;20.30;80.40
78028;DHT22;67235;45.638;11.714;2023-08-06T00:51:38;20.40;80.60
78028;DHT22;67235;45.638;11.714;2023-08-06T00:54:09;20.40;80.70
78028;DHT22;67235;45.638;11.714;2023-08-06T00:56:49;20.40;81.00
78028;DHT22;67235;45.638;11.714;2023-08-06T00:59:27;20.40;80.50
78028;DHT22;67235;45.638;11.714;2023-08-06T01:16:17;20.30;80.90
78028;DHT22;67235;45.638;11.714;2023-08-06T01:19:17;20.40;81.10
78028;DHT22;67235;45.638;11.714;2023-08-06T01:22:17;20.40;80.90
78028;DHT22;67235;45.638;11.714;2023-08-06T01:24:48;20.40;80.90
78028;DHT22;67235;45.638;11.714;2023-08-06T01:28:18;20.30;80.80
78028;DHT22;67235;45.638;11.714;2023-08-06T01:30:53;20.30;81.00
78028;DHT22;67235;45.638;11.714;2023-08-06T01:33:54;20.40;81.00
78028;DHT22;67235;45.638;11.714;2023-08-06T01:36:56;20.50;81.00
78028;DHT22;67235;45.638;11.714;2023-08-06T01:39:37;20.40;81.00
78028;DHT22;67235;45.638;11.714;2023-08-06T01:42:08;20.40;80.90
78028;DHT22;67235;45.638;11.714;2023-08-06T01:44:36;20.40;80.90
78028;DHT22;67235;45.638;11.714;2023-08-06T01:47:15;20.40;81.10
78028;DHT22;67235;45.638;11.714;2023-08-06T01:49:48;20.40;81.10
78028;DHT22;67235;45.638;11.714;2023-08-06T01:52:18;20.40;81.10
78028;DHT22;67235;45.638;11.714;2023-08-06T01:54:56;20.30;81.20
78028;DHT22;67235;45.638;11.714;2023-08-06T01:57:35;20.30;81.10
78028;DHT22;67235;45.638;11.714;2023-08-06T02:00:19;20.30;81.30
78028;DHT22;67235;45.638;11.714;2023-08-06T02:02:50;20.30;81.30
78028;DHT22;67235;45.638;11.714;2023-08-06T02:05:44;20.30;81.30
78028;DHT22;67235;45.638;11.714;2023-08-06T02:08:39;20.30;81.20
78028;DHT22;67235;45.638;11.714;2023-08-06T02:11:31;20.30;81.40
78028;DHT22;67235;45.638;11.714;2023-08-06T02:14:18;20.20;81.10
78028;DHT22;67235;45.638;11.714;2023-08-06T02:16:53;20.20;81.20
78028;DHT22;67235;45.638;11.714;2023-08-06T02:19:22;20.20;81.00
78028;DHT22;67235;45.638;11.714;2023-08-06T02:22:00;20.00;81.00
78028;DHT22;67235;45.638;11.714;2023-08-06T02:24:35;20.00;81.20
78028;DHT22;67235;45.638;11.714;2023-08-06T02:27:27;20.00;81.40
78028;DHT22;67235;45.638;11.714;2023-08-06T02:30:05;20.00;81.40
78028;DHT22;67235;45.638;11.714;2023-08-06T02:32:48;20.10;81.50
78028;DHT22;67235;45.638;11.714;2023-08-06T02:35:31;20.10;81.30
78028;DHT22;67235;45.638;11.714;2023-08-06T02:38:05;20.20;81.40
78028;DHT22;67235;45.638;11.714;2023-08-06T02:40:57;20.20;81.40
78028;DHT22;67235;45.638;11.714;2023-08-06T02:43:55;20.30;81.50
78028;DHT22;67235;45.638;11.714;2023-08-06T02:46:26;20.30;81.50
78028;DHT22;67235;45.638;11.714;2023-08-06T02:48:59;20.20;81.60
78028;DHT22;67235;45.638;11.714;2023-08-06T02:51:47;20.30;81.80
78028;DHT22;67235;45.638;11.714;2023-08-06T02:54:17;20.30;81.50
78028;DHT22;67235;45.638;11.714;2023-08-06T02:57:11;20.30;81.60
78028;DHT22;67235;45.638;11.714;2023-08-06T02:59:48;20.30;81.60
78028;DHT22;67235;45.638;11.714;2023-08-06T03:02:19;20.30;81.50
78028;DHT22;67235;45.638;11.714;2023-08-06T03:05:11;20.30;81.70
78028;DHT22;67235;45.638;11.714;2023-08-06T03:07:40;20.40;81.50
78028;DHT22;67235;45.638;11.714;2023-08-06T03:10:09;20.40;81.60
78028;DHT22;67235;45.638;11.714;2023-08-06T03:12:39;20.40;81.50
78028;DHT22;67235;45.638;11.714;2023-08-06T03:15:27;20.40;81.20
78028;DHT22;67235;45.638;11.714;2023-08-06T03:17:56;20.30;81.20
78028;DHT22;67235;45.638;11.714;2023-08-06T03:20:46;20.30;81.20
78028;DHT22;67235;45.638;11.714;2023-08-06T03:23:35;20.20;81.10
78028;DHT22;67235;45.638;11.714;2023-08-06T03:26:17;20.20;79.80
78028;DHT22;67235;45.638;11.714;2023-08-06T03:29:09;20.30;79.40
78028;DHT22;67235;45.638;11.714;2023-08-06T03:31:56;20.20;79.60
78028;DHT22;67235;45.638;11.714;2023-08-06T03:34:24;20.20;80.00
78028;DHT22;67235;45.638;11.714;2023-08-06T03:37:04;20.30;79.40
78028;DHT22;67235;45.638;11.714;2023-08-06T03:39:38;20.20;79.80
78028;DHT22;67235;45.638;11.714;2023-08-06T03:42:07;20.20;80.00
78028;DHT22;67235;45.638;11.714;2023-08-06T03:44:51;20.10;80.40
78028;DHT22;67235;45.638;11.714;2023-08-06T03:47:22;20.20;80.40
78028;DHT22;67235;45.638;11.714;2023-08-06T03:49:54;20.20;80.30
78028;DHT22;67235;45.638;11.714;2023-08-06T03:52:32;20.10;80.40
78028;DHT22;67235;45.638;11.714;2023-08-06T03:55:02;20.20;80.60
78028;DHT22;67235;45.638;11.714;2023-08-06T03:57:34;20.10;80.10
78028;DHT22;67235;45.638;11.714;2023-08-06T04:00:33;20.10;80.20
78028;DHT22;67235;45.638;11.714;2023-08-06T04:03:14;20.10;79.50
78028;DHT22;67235;45.638;11.714;2023-08-06T04:05:50;20.10;78.80
78028;DHT22;67235;45.638;11.714;2023-08-06T04:24:02;20.00;80.40
78028;DHT22;67235;45.638;11.714;2023-08-06T04:26:46;20.00;79.90
78028;DHT22;67235;45.638;11.714;2023-08-06T04:29:18;20.00;80.10
78028;DHT22;67235;45.638;11.714;2023-08-06T04:32:05;20.00;80.40
78028;DHT22;67235;45.638;11.714;2023-08-06T04:35:21;20.10;80.50
78028;DHT22;67235;45.638;11.714;2023-08-06T04:38:15;20.10;79.90
78028;DHT22;67235;45.638;11.714;2023-08-06T04:40:52;20.10;80.00
78028;DHT22;67235;45.638;11.714;2023-08-06T04:43:25;20.10;79.80
78028;DHT22;67235;45.638;11.714;2023-08-06T04:45:55;20.20;80.00
78028;DHT22;67235;45.638;11.714;2023-08-06T04:48:33;20.20;79.60
78028;DHT22;67235;45.638;11.714;2023-08-06T04:51:26;20.20;79.40
78028;DHT22;67235;45.638;11.714;2023-08-06T04:54:04;20.30;79.30
78028;DHT22;67235;45.638;11.714;2023-08-06T04:56:41;20.30;79.50
78028;DHT22;67235;45.638;11.714;2023-08-06T04:59:12;20.40;79.30
78028;DHT22;67235;45.638;11.714;2023-08-06T05:01:44;20.50;79.40
78028;DHT22;67235;45.638;11.714;2023-08-06T05:04:16;21.10;77.10
78028;DHT22;67235;45.638;11.714;2023-08-06T05:07:07;22.80;74.70
78028;DHT22;67235;45.638;11.714;2023-08-06T05:09:46;25.20;71.00
78028;DHT22;67235;45.638;11.714;2023-08-06T05:12:36;27.40;67.00
78028;DHT22;67235;45.638;11.714;2023-08-06T05:15:38;28.90;59.90
78028;DHT22;67235;45.638;11.714;2023-08-06T06:13:52;33.80;41.10
78028;DHT22;67235;45.638;11.714;2023-08-06T06:21:41;34.30;41.00
78028;DHT22;67235;45.638;11.714;2023-08-06T06:24:19;35.00;39.40
78028;DHT22;67235;45.638;11.714;2023-08-06T06:35:17;37.40;35.60
78028;DHT22;67235;45.638;11.714;2023-08-06T07:19:02;35.50;35.20
78028;DHT22;67235;45.638;11.714;2023-08-06T07:21:36;34.90;36.70
78028;DHT22;67235;45.638;11.714;2023-08-06T07:24:11;34.50;39.50
78028;DHT22;67235;45.638;11.714;2023-08-06T07:26:48;33.70;39.80
78028;DHT22;67235;45.638;11.714;2023-08-06T07:29:27;34.80;37.80
78028;DHT22;67235;45.638;11.714;2023-08-06T07:32:23;33.80;37.90
78028;DHT22;67235;45.638;11.714;2023-08-06T07:35:29;32.40;39.60
78028;DHT22;67235;45.638;11.714;2023-08-06T07:38:04;31.10;44.60
78028;DHT22;67235;45.638;11.714;2023-08-06T07:40:36;31.10;47.00
78028;DHT22;67235;45.638;11.714;2023-08-06T07:43:07;31.10;47.30
78028;DHT22;67235;45.638;11.714;2023-08-06T07:45:40;31.00;47.60
78028;DHT22;67235;45.638;11.714;2023-08-06T07:48:09;31.00;45.90
78028;DHT22;67235;45.638;11.714;2023-08-06T07:50:35;30.20;46.90
78028;DHT22;67235;45.638;11.714;2023-08-06T07:53:04;30.70;47.50
78028;DHT22;67235;45.638;11.714;2023-08-06T07:55:36;31.30;47.50
78028;DHT22;67235;45.638;11.714;2023-08-06T07:58:09;31.90;44.60
78028;DHT22;67235;45.638;11.714;2023-08-06T08:00:51;31.90;44.50
78028;DHT22;67235;45.638;11.714;2023-08-06T08:03:50;32.20;43.50
78028;DHT22;67235;45.638;11.714;2023-08-06T08:06:48;32.10;45.80
78028;DHT22;67235;45.638;11.714;2023-08-06T08:09:27;31.70;48.10
78028;DHT22;67235;45.638;11.714;2023-08-06T08:11:53;31.70;46.20
78028;DHT22;67235;45.638;11.714;2023-08-06T08:14:33;31.50;46.40
78028;DHT22;67235;45.638;11.714;2023-08-06T08:17:12;30.80;47.30
78028;DHT22;67235;45.638;11.714;2023-08-06T08:19:46;31.20;46.30
78028;DHT22;67235;45.638;11.714;2023-08-06T08:22:26;31.10;44.00
78028;DHT22;67235;45.638;11.714;2023-08-06T08:25:00;31.00;46.70
78028;DHT22;67235;45.638;11.714;2023-08-06T08:27:32;30.50;53.00
78028;DHT22;67235;45.638;11.714;2023-08-06T08:29:59;30.90;46.90
78028;DHT22;67235;45.638;11.714;2023-08-06T08:32:25;31.00;47.20
78028;DHT22;67235;45.638;11.714;2023-08-06T08:34:56;30.80;50.00
78028;DHT22;67235;45.638;11.714;2023-08-06T08:37:34;31.00;50.20
78028;DHT22;67235;45.638;11.714;2023-08-06T08:40:28;31.20;43.80
78028;DHT22;67235;45.638;11.714;2023-08-06T08:42:58;31.40;50.40
78028;DHT22;67235;45.638;11.714;2023-08-06T08:45:39;31.30;46.00
78028;DHT22;67235;45.638;11.714;2023-08-06T08:48:39;30.90;47.20
78028;DHT22;67235;45.638;11.714;2023-08-06T08:51:16;31.20;47.00
78028;DHT22;67235;45.638;11.714;2023-08-06T08:53:47;31.30;47.00
78028;DHT22;67235;45.638;11.714;2023-08-06T08:56:23;31.70;48.30
78028;DHT22;67235;45.638;11.714;2023-08-06T08:58:52;31.80;46.90
78028;DHT22;67235;45.638;11.714;2023-08-06T09:01:26;31.80;43.90
78028;DHT22;67235;45.638;11.714;2023-08-06T09:04:04;32.30;43.80
78028;DHT22;67235;45.638;11.714;2023-08-06T09:06:33;32.30;46.50
78028;DHT22;67235;45.638;11.714;2023-08-06T09:09:08;32.50;43.50
78028;DHT22;67235;45.638;11.714;2023-08-06T09:11:39;32.60;41.80
78028;DHT22;67235;45.638;11.714;2023-08-06T09:14:11;31.70;42.40
78028;DHT22;67235;45.638;11.714;2023-08-06T09:16:39;31.30;45.00
78028;DHT22;67235;45.638;11.714;2023-08-06T09:19:13;31.50;48.80
78028;DHT22;67235;45.638;11.714;2023-08-06T09:21:42;31.60;45.80
78028;DHT22;67235;45.638;11.714;2023-08-06T09:24:12;31.50;42.10
78028;DHT22;67235;45.638;11.714;2023-08-06T09:26:40;31.40;45.30
78028;DHT22;67235;45.638;11.714;2023-08-06T09:29:07;31.70;46.50
78028;DHT22;67235;45.638;11.714;2023-08-06T09:31:41;32.30;42.30
78028;DHT22;67235;45.638;11.714;2023-08-06T09:36:53;32.40;42.60
78028;DHT22;67235;45.638;11.714;2023-08-06T09:39:28;32.70;39.80
78028;DHT22;67235;45.638;11.714;2023-08-06T09:42:02;32.60;41.80
78028;DHT22;67235;45.638;11.714;2023-08-06T09:44:33;32.70;42.00
78028;DHT22;67235;45.638;11.714;2023-08-06T09:47:03;33.00;41.40
78028;DHT22;67235;45.638;11.714;2023-08-06T09:52:00;32.80;38.80
78028;DHT22;67235;45.638;11.714;2023-08-06T09:54:29;33.00;40.60
78028;DHT22;67235;45.638;11.714;2023-08-06T09:57:12;33.20;40.70
78028;DHT22;67235;45.638;11.714;2023-08-06T09:59:43;33.30;39.70
78028;DHT22;67235;45.638;11.714;2023-08-06T10:02:19;32.90;40.60
78028;DHT22;67235;45.638;11.714;2023-08-06T10:04:51;32.50;38.80
78028;DHT22;67235;45.638;11.714;2023-08-06T10:07:31;32.40;39.70
78028;DHT22;67235;45.638;11.714;2023-08-06T10:10:19;32.30;43.80
78028;DHT22;67235;45.638;11.714;2023-08-06T10:12:54;32.60;39.20
78028;DHT22;67235;45.638;11.714;2023-08-06T10:15:29;32.90;43.50
78028;DHT22;67235;45.638;11.714;2023-08-06T10:18:14;33.00;41.60
78028;DHT22;67235;45.638;11.714;2023-08-06T10:20:46;33.30;42.80
78028;DHT22;67235;45.638;11.714;2023-08-06T10:23:12;33.50;39.60
78028;DHT22;67235;45.638;11.714;2023-08-06T10:25:53;33.70;43.40
78028;DHT22;67235;45.638;11.714;2023-08-06T10:28:37;33.80;41.00
78028;DHT22;67235;45.638;11.714;2023-08-06T10:31:11;33.50;40.10
78028;DHT22;67235;45.638;11.714;2023-08-06T10:33:48;33.30;40.80
78028;DHT22;67235;45.638;11.714;2023-08-06T10:36:18;32.80;42.10
78028;DHT22;67235;45.638;11.714;2023-08-06T10:38:53;32.80;42.60
78028;DHT22;67235;45.638;11.714;2023-08-06T10:41:45;32.50;40.10
78028;DHT22;67235;45.638;11.714;2023-08-06T10:44:17;32.30;41.50
78028;DHT22;67235;45.638;11.714;2023-08-06T10:50:05;32.70;41.10
78028;DHT22;67235;45.638;11.714;2023-08-06T10:52:32;32.60;42.60
78028;DHT22;67235;45.638;11.714;2023-08-06T10:55:28;32.50;42.60
78028;DHT22;67235;45.638;11.714;2023-08-06T10:58:42;32.70;41.00
78028;DHT22;67235;45.638;11.714;2023-08-06T11:01:33;32.90;42.60
78028;DHT22;67235;45.638;11.714;2023-08-06T11:04:11;32.80;43.50
78028;DHT22;67235;45.638;11.714;2023-08-06T11:06:59;32.30;40.80
78028;DHT22;67235;45.638;11.714;2023-08-06T11:10:03;32.00;39.50
78028;DHT22;67235;45.638;11.714;2023-08-06T11:12:55;31.70;43.50
78028;DHT22;67235;45.638;11.714;2023-08-06T11:15:25;31.70;40.30
78028;DHT22;67235;45.638;11.714;2023-08-06T11:18:55;31.30;41.90
78028;DHT22;67235;45.638;11.714;2023-08-06T11:21:51;31.00;42.70
78028;DHT22;67235;45.638;11.714;2023-08-06T11:24:24;30.90;46.50
78028;DHT22;67235;45.638;11.714;2023-08-06T11:26:59;30.90;43.70
78028;DHT22;67235;45.638;11.714;2023-08-06T11:29:28;30.90;43.50
78028;DHT22;67235;45.638;11.714;2023-08-06T11:32:33;30.90;44.70
78028;DHT22;67235;45.638;11.714;2023-08-06T11:35:10;30.80;44.60
78028;DHT22;67235;45.638;11.714;2023-08-06T11:38:07;30.90;44.00
78028;DHT22;67235;45.638;11.714;2023-08-06T11:41:06;31.20;41.90
78028;DHT22;67235;45.638;11.714;2023-08-06T11:43:40;30.60;41.60
78028;DHT22;67235;45.638;11.714;2023-08-06T11:46:13;30.40;42.20
78028;DHT22;67235;45.638;11.714;2023-08-06T11:49:01;30.50;44.00
78028;DHT22;67235;45.638;11.714;2023-08-06T11:51:39;31.00;43.70
78028;DHT22;67235;45.638;11.714;2023-08-06T11:54:41;31.20;42.70
78028;DHT22;67235;45.638;11.714;2023-08-06T11:57:12;31.10;43.50
78028;DHT22;67235;45.638;11.714;2023-08-06T11:59:49;31.20;42.30
78028;DHT22;67235;45.638;11.714;2023-08-06T12:02:17;30.90;44.40
78028;DHT22;67235;45.638;11.714;2023-08-06T12:08:08;30.60;44.60
78028;DHT22;67235;45.638;11.714;2023-08-06T12:10:48;30.30;47.60
78028;DHT22;67235;45.638;11.714;2023-08-06T12:13:25;30.20;45.00
78028;DHT22;67235;45.638;11.714;2023-08-06T12:15:57;30.70;46.10
78028;DHT22;67235;45.638;11.714;2023-08-06T12:18:58;30.60;47.20
78028;DHT22;67235;45.638;11.714;2023-08-06T12:21:41;30.50;46.10
78028;DHT22;67235;45.638;11.714;2023-08-06T12:24:31;30.50;47.20
78028;DHT22;67235;45.638;11.714;2023-08-06T12:27:04;30.50;46.30
78028;DHT22;67235;45.638;11.714;2023-08-06T12:30:19;30.60;43.90
78028;DHT22;67235;45.638;11.714;2023-08-06T12:33:14;30.90;45.60
78028;DHT22;67235;45.638;11.714;2023-08-06T12:35:58;30.80;45.80
78028;DHT22;67235;45.638;11.714;2023-08-06T12:44:33;30.60;46.60
78028;DHT22;67235;45.638;11.714;2023-08-06T12:54:50;29.50;49.00
78028;DHT22;67235;45.638;11.714;2023-08-06T12:57:33;29.40;46.50
78028;DHT22;67235;45.638;11.714;2023-08-06T13:00:07;29.50;47.50
78028;DHT22;67235;45.638;11.714;2023-08-06T13:08:00;30.90;49.00
78028;DHT22;67235;45.638;11.714;2023-08-06T13:10:37;31.10;46.60
78028;DHT22;67235;45.638;11.714;2023-08-06T13:13:25;31.30;48.90
78028;DHT22;67235;45.638;11.714;2023-08-06T13:21:10;31.10;50.70
78028;DHT22;67235;45.638;11.714;2023-08-06T13:27:14;30.90;45.70
78028;DHT22;67235;45.638;11.714;2023-08-06T13:35:54;30.00;46.70
78028;DHT22;67235;45.638;11.714;2023-08-06T13:49:59;29.20;53.10
78028;DHT22;67235;45.638;11.714;2023-08-06T13:52:49;29.20;50.40
78028;DHT22;67235;45.638;11.714;2023-08-06T14:01:41;29.90;51.80
78028;DHT22;67235;45.638;11.714;2023-08-06T14:04:37;30.00;51.20
78028;DHT22;67235;45.638;11.714;2023-08-06T14:37:53;29.40;51.10
78028;DHT22;67235;45.638;11.714;2023-08-06T14:40:44;29.30;52.20
78028;DHT22;67235;45.638;11.714;2023-08-06T14:48:37;29.20;51.30
78028;DHT22;67235;45.638;11.714;2023-08-06T14:51:27;29.30;51.50
78028;DHT22;67235;45.638;11.714;2023-08-06T14:57:35;29.10;49.90
78028;DHT22;67235;45.638;11.714;2023-08-06T15:00:09;29.00;52.50
78028;DHT22;67235;45.638;11.714;2023-08-06T15:06:27;29.10;51.90
78028;DHT22;67235;45.638;11.714;2023-08-06T15:08:58;29.20;50.70
78028;DHT22;67235;45.638;11.714;2023-08-06T15:11:29;29.30;48.30
78028;DHT22;67235;45.638;11.714;2023-08-06T15:16:20;28.90;48.80
78028;DHT22;67235;45.638;11.714;2023-08-06T15:18:46;28.70;49.60
78028;DHT22;67235;45.638;11.714;2023-08-06T15:30:58;28.60;52.60
78028;DHT22;67235;45.638;11.714;2023-08-06T15:36:46;28.70;50.90
78028;DHT22;67235;45.638;11.714;2023-08-06T15:39:13;28.70;51.80
78028;DHT22;67235;45.638;11.714;2023-08-06T15:41:51;28.70;52.50
78028;DHT22;67235;45.638;11.714;2023-08-06T15:48:04;28.50;54.70
78028;DHT22;67235;45.638;11.714;2023-08-06T16:45:29;25.50;55.10
78028;DHT22;67235;45.638;11.714;2023-08-06T16:53:23;24.50;50.60
78028;DHT22;67235;45.638;11.714;2023-08-06T16:55:53;24.30;50.50
78028;DHT22;67235;45.638;11.714;2023-08-06T16:58:22;24.00;52.80
78028;DHT22;67235;45.638;11.714;2023-08-06T17:00:54;23.80;52.10
78028;DHT22;67235;45.638;11.714;2023-08-06T17:03:31;23.80;53.20
78028;DHT22;67235;45.638;11.714;2023-08-06T19:49:00;21.10;68.50
78028;DHT22;67235;45.638;11.714;2023-08-06T19:51:34;20.80;70.00
78028;DHT22;67235;45.638;11.714;2023-08-06T19:54:24;20.70;70.70
78028;DHT22;67235;45.638;11.714;2023-08-06T20:00:09;20.70;70.80
